SBI1035 USTR-USSS
Flight info
| Callsign | SBI1035 |
|---|---|
| Flight time | 0h 33m |
| Altitude | 31000 |
| Route | BEPA1K BEPAR T448 SOPUS SOPU6S |
| Aircraft | A320/M-SBDFGM3RWXY/LB1 |
Departure
| Time | 2026-04-27 18:02 |
|---|---|
| Airport | Roshchino International Airport (USTR) |
Arrival
| Time | 2026-04-27 18:35 |
|---|---|
| Airport | Koltsovo Airport (USSS) |
| Time | Latitude | Longitude | Altitude | Speed | Heading |
|---|---|---|---|---|---|
| 2026-04-27 17:53 | 57.18261 | 65.34400 | 325 ft | 0 kts | 44° |
| 2026-04-27 17:55 | 57.18257 | 65.34392 | 325 ft | 2 kts | 44° |
| 2026-04-27 17:55 | 57.18248 | 65.34377 | 325 ft | 0 kts | 44° |
| 2026-04-27 17:55 | 57.18239 | 65.34361 | 325 ft | 2 kts | 23° |
| 2026-04-27 17:55 | 57.18224 | 65.34355 | 326 ft | 2 kts | 359° |
| 2026-04-27 17:56 | 57.18209 | 65.34361 | 326 ft | 2 kts | 332° |
| 2026-04-27 17:56 | 57.18201 | 65.34370 | 326 ft | 0 kts | 316° |
| 2026-04-27 17:56 | 57.18196 | 65.34380 | 326 ft | 0 kts | 314° |
| 2026-04-27 17:57 | 57.18198 | 65.34376 | 326 ft | 2 kts | 313° |
| 2026-04-27 17:57 | 57.18224 | 65.34328 | 326 ft | 8 kts | 315° |
| 2026-04-27 17:57 | 57.18279 | 65.34229 | 325 ft | 13 kts | 315° |
| 2026-04-27 17:58 | 57.18358 | 65.34081 | 323 ft | 18 kts | 314° |
| 2026-04-27 17:58 | 57.18463 | 65.33887 | 318 ft | 20 kts | 315° |
| 2026-04-27 17:58 | 57.18547 | 65.33730 | 315 ft | 19 kts | 314° |
| 2026-04-27 17:58 | 57.18617 | 65.33571 | 314 ft | 15 kts | 279° |
| 2026-04-27 17:59 | 57.18614 | 65.33363 | 316 ft | 17 kts | 244° |
| 2026-04-27 17:59 | 57.18532 | 65.33192 | 321 ft | 17 kts | 223° |
| 2026-04-27 17:59 | 57.18477 | 65.33003 | 324 ft | 18 kts | 266° |
| 2026-04-27 17:59 | 57.18472 | 65.32763 | 329 ft | 18 kts | 267° |
| 2026-04-27 18:00 | 57.18467 | 65.32516 | 331 ft | 20 kts | 268° |
| 2026-04-27 18:00 | 57.18462 | 65.32261 | 335 ft | 18 kts | 269° |
| 2026-04-27 18:00 | 57.18537 | 65.32063 | 334 ft | 21 kts | 317° |
| 2026-04-27 18:00 | 57.18655 | 65.31862 | 333 ft | 24 kts | 316° |
| 2026-04-27 18:01 | 57.18680 | 65.31665 | 336 ft | 15 kts | 226° |
| 2026-04-27 18:01 | 57.18466 | 65.31239 | 346 ft | 81 kts | 227° |
| 2026-04-27 18:01 | 57.17941 | 65.30163 | 361 ft | 142 kts | 226° |
| 2026-04-27 18:01 | 57.17245 | 65.28709 | 656 ft | 159 kts | 226° |
| 2026-04-27 18:02 | 57.16451 | 65.27093 | 927 ft | 185 kts | 223° |
| 2026-04-27 18:02 | 57.15499 | 65.25185 | 1102 ft | 217 kts | 237° |
| 2026-04-27 18:02 | 57.15172 | 65.22310 | 1258 ft | 248 kts | 277° |
| 2026-04-27 18:02 | 57.15931 | 65.19369 | 1511 ft | 262 kts | 310° |
| 2026-04-27 18:03 | 57.17231 | 65.16957 | 2326 ft | 269 kts | 313° |
| 2026-04-27 18:03 | 57.18318 | 65.14258 | 3405 ft | 264 kts | 290° |
| 2026-04-27 18:03 | 57.18650 | 65.10997 | 4389 ft | 260 kts | 266° |
| 2026-04-27 18:03 | 57.18503 | 65.07743 | 5340 ft | 261 kts | 259° |
| 2026-04-27 18:04 | 57.18253 | 65.04406 | 6299 ft | 264 kts | 259° |
| 2026-04-27 18:04 | 57.18001 | 65.01063 | 7257 ft | 266 kts | 259° |
| 2026-04-27 18:04 | 57.17763 | 64.97700 | 8195 ft | 268 kts | 259° |
| 2026-04-27 18:04 | 57.17532 | 64.94264 | 9117 ft | 271 kts | 260° |
| 2026-04-27 18:05 | 57.17309 | 64.90839 | 10004 ft | 273 kts | 260° |
| 2026-04-27 18:05 | 57.17086 | 64.87347 | 10733 ft | 281 kts | 261° |
| 2026-04-27 18:05 | 57.16854 | 64.83743 | 11163 ft | 299 kts | 261° |
| 2026-04-27 18:05 | 57.16601 | 64.79820 | 11560 ft | 317 kts | 261° |
| 2026-04-27 18:06 | 57.16330 | 64.75584 | 11930 ft | 335 kts | 261° |
| 2026-04-27 18:06 | 57.16047 | 64.71123 | 12255 ft | 353 kts | 261° |
| 2026-04-27 18:06 | 57.15753 | 64.66492 | 12571 ft | 369 kts | 262° |
| 2026-04-27 18:06 | 57.15454 | 64.61797 | 13126 ft | 377 kts | 262° |
| 2026-04-27 18:07 | 57.15145 | 64.56957 | 13854 ft | 379 kts | 261° |
| 2026-04-27 18:07 | 57.14828 | 64.52048 | 14549 ft | 382 kts | 262° |
| 2026-04-27 18:07 | 57.14587 | 64.47148 | 15197 ft | 386 kts | 264° |
| 2026-04-27 18:07 | 57.14432 | 64.42140 | 15844 ft | 390 kts | 265° |
| 2026-04-27 18:08 | 57.14285 | 64.37205 | 16461 ft | 393 kts | 265° |
| 2026-04-27 18:08 | 57.14129 | 64.32112 | 17078 ft | 396 kts | 264° |
| 2026-04-27 18:08 | 57.13973 | 64.27088 | 17672 ft | 399 kts | 264° |
| 2026-04-27 18:08 | 57.13810 | 64.21952 | 18254 ft | 402 kts | 264° |
| 2026-04-27 18:09 | 57.13644 | 64.16845 | 18810 ft | 405 kts | 264° |
| 2026-04-27 18:09 | 57.13471 | 64.11603 | 19363 ft | 408 kts | 264° |
| 2026-04-27 18:09 | 57.13299 | 64.06473 | 19882 ft | 411 kts | 264° |
| 2026-04-27 18:09 | 57.13120 | 64.01208 | 20399 ft | 413 kts | 264° |
| 2026-04-27 18:10 | 57.12932 | 63.95770 | 20944 ft | 416 kts | 264° |
| 2026-04-27 18:10 | 57.12739 | 63.90271 | 21466 ft | 418 kts | 264° |
| 2026-04-27 18:10 | 57.12545 | 63.84814 | 21956 ft | 421 kts | 264° |
| 2026-04-27 18:10 | 57.12351 | 63.79262 | 22429 ft | 424 kts | 264° |
| 2026-04-27 18:11 | 57.12264 | 63.73707 | 22881 ft | 428 kts | 267° |
| 2026-04-27 18:11 | 57.12314 | 63.68136 | 23368 ft | 429 kts | 269° |
| 2026-04-27 18:11 | 57.12392 | 63.62561 | 23996 ft | 427 kts | 269° |
| 2026-04-27 18:11 | 57.12470 | 63.57116 | 24595 ft | 425 kts | 269° |
| 2026-04-27 18:12 | 57.12545 | 63.51655 | 25158 ft | 424 kts | 269° |
| 2026-04-27 18:12 | 57.12619 | 63.46090 | 25688 ft | 423 kts | 269° |
| 2026-04-27 18:12 | 57.12687 | 63.40609 | 26116 ft | 425 kts | 269° |
| 2026-04-27 18:12 | 57.12750 | 63.35219 | 26488 ft | 427 kts | 269° |
| 2026-04-27 18:13 | 57.12812 | 63.29715 | 26864 ft | 429 kts | 268° |
| 2026-04-27 18:13 | 57.12871 | 63.24238 | 27118 ft | 431 kts | 268° |
| 2026-04-27 18:13 | 57.12928 | 63.18737 | 27138 ft | 432 kts | 268° |
| 2026-04-27 18:13 | 57.12983 | 63.13238 | 27144 ft | 432 kts | 268° |
| 2026-04-27 18:14 | 57.13035 | 63.07683 | 27147 ft | 432 kts | 268° |
| 2026-04-27 18:14 | 57.13083 | 63.02197 | 27142 ft | 432 kts | 268° |
| 2026-04-27 18:14 | 57.13130 | 62.96624 | 27132 ft | 432 kts | 268° |
| 2026-04-27 18:14 | 57.13173 | 62.91119 | 27116 ft | 433 kts | 268° |
| 2026-04-27 18:15 | 57.13215 | 62.85604 | 27097 ft | 433 kts | 269° |
| 2026-04-27 18:15 | 57.13256 | 62.80042 | 27078 ft | 433 kts | 269° |
| 2026-04-27 18:15 | 57.13294 | 62.74555 | 27064 ft | 434 kts | 269° |
| 2026-04-27 18:15 | 57.13329 | 62.68988 | 27055 ft | 434 kts | 269° |
| 2026-04-27 18:16 | 57.13362 | 62.63423 | 27050 ft | 434 kts | 269° |
| 2026-04-27 18:16 | 57.13392 | 62.57873 | 27046 ft | 434 kts | 269° |
| 2026-04-27 18:16 | 57.13419 | 62.52319 | 27044 ft | 434 kts | 269° |
| 2026-04-27 18:16 | 57.13444 | 62.46774 | 27044 ft | 434 kts | 269° |
| 2026-04-27 18:17 | 57.13466 | 62.41231 | 27043 ft | 434 kts | 269° |
| 2026-04-27 18:17 | 57.13486 | 62.35749 | 27043 ft | 434 kts | 269° |
| 2026-04-27 18:17 | 57.13502 | 62.30180 | 27043 ft | 434 kts | 268° |
| 2026-04-27 18:17 | 57.13516 | 62.24590 | 27042 ft | 433 kts | 268° |
| 2026-04-27 18:18 | 57.13527 | 62.19083 | 27042 ft | 434 kts | 268° |
| 2026-04-27 18:18 | 57.13535 | 62.13511 | 27042 ft | 434 kts | 268° |
| 2026-04-27 18:18 | 57.13541 | 62.07937 | 27042 ft | 434 kts | 268° |
| 2026-04-27 18:18 | 57.13545 | 62.02441 | 27040 ft | 433 kts | 268° |
| 2026-04-27 18:19 | 57.13544 | 61.96893 | 27033 ft | 433 kts | 268° |
| 2026-04-27 18:19 | 57.13534 | 61.91340 | 27026 ft | 433 kts | 268° |
| 2026-04-27 18:19 | 57.13385 | 61.85815 | 27022 ft | 433 kts | 262° |
| 2026-04-27 18:19 | 57.13024 | 61.80264 | 27019 ft | 434 kts | 261° |
| 2026-04-27 18:20 | 57.12614 | 61.74721 | 27017 ft | 434 kts | 261° |
| 2026-04-27 18:20 | 57.12212 | 61.69250 | 26952 ft | 426 kts | 261° |
| 2026-04-27 18:20 | 57.11824 | 61.63826 | 26735 ft | 414 kts | 261° |
| 2026-04-27 18:20 | 57.11460 | 61.58622 | 26503 ft | 401 kts | 261° |
| 2026-04-27 18:21 | 57.11108 | 61.53550 | 26280 ft | 388 kts | 261° |
| 2026-04-27 18:21 | 57.10766 | 61.48609 | 26063 ft | 376 kts | 261° |
| 2026-04-27 18:21 | 57.10440 | 61.43912 | 25849 ft | 365 kts | 261° |
| 2026-04-27 18:21 | 57.10121 | 61.39348 | 25653 ft | 354 kts | 261° |
| 2026-04-27 18:22 | 57.09812 | 61.34951 | 25314 ft | 348 kts | 260° |
| 2026-04-27 18:22 | 57.09494 | 61.30460 | 24468 ft | 357 kts | 260° |
| 2026-04-27 18:22 | 57.09169 | 61.25919 | 23513 ft | 368 kts | 259° |
| 2026-04-27 18:22 | 57.08722 | 61.21273 | 22529 ft | 377 kts | 256° |
| 2026-04-27 18:23 | 57.08087 | 61.16571 | 21719 ft | 380 kts | 252° |
| 2026-04-27 18:23 | 57.07289 | 61.11938 | 21128 ft | 377 kts | 250° |
| 2026-04-27 18:23 | 57.06430 | 61.07411 | 20557 ft | 374 kts | 250° |
| 2026-04-27 18:23 | 57.05572 | 61.02919 | 19970 ft | 372 kts | 250° |
| 2026-04-27 18:24 | 57.04718 | 60.98455 | 19383 ft | 369 kts | 250° |
| 2026-04-27 18:24 | 57.03863 | 60.94003 | 18799 ft | 367 kts | 250° |
| 2026-04-27 18:24 | 57.03011 | 60.89576 | 18231 ft | 364 kts | 250° |
| 2026-04-27 18:24 | 57.02181 | 60.85273 | 17688 ft | 361 kts | 250° |
| 2026-04-27 18:25 | 57.01343 | 60.80943 | 17123 ft | 359 kts | 250° |
| 2026-04-27 18:25 | 57.00500 | 60.76599 | 16233 ft | 366 kts | 250° |
| 2026-04-27 18:25 | 56.99652 | 60.72228 | 15287 ft | 372 kts | 251° |
| 2026-04-27 18:25 | 56.99118 | 60.67590 | 14570 ft | 372 kts | 265° |
| 2026-04-27 18:26 | 56.99142 | 60.62848 | 13997 ft | 369 kts | 271° |
| 2026-04-27 18:26 | 56.99266 | 60.58242 | 13404 ft | 365 kts | 272° |
| 2026-04-27 18:26 | 56.99397 | 60.53598 | 12783 ft | 362 kts | 272° |
| 2026-04-27 18:26 | 56.99519 | 60.49003 | 12174 ft | 359 kts | 272° |
| 2026-04-27 18:27 | 56.99631 | 60.44497 | 11575 ft | 357 kts | 271° |
| 2026-04-27 18:27 | 56.99740 | 60.39934 | 10950 ft | 354 kts | 271° |
| 2026-04-27 18:27 | 56.99841 | 60.35442 | 10323 ft | 352 kts | 270° |
| 2026-04-27 18:27 | 56.99491 | 60.31079 | 9656 ft | 348 kts | 248° |
| 2026-04-27 18:28 | 56.98306 | 60.27280 | 9072 ft | 343 kts | 230° |
| 2026-04-27 18:28 | 56.96487 | 60.24403 | 8432 ft | 341 kts | 210° |
| 2026-04-27 18:28 | 56.94310 | 60.22883 | 7813 ft | 340 kts | 191° |
| 2026-04-27 18:28 | 56.91953 | 60.22794 | 7193 ft | 340 kts | 172° |
| 2026-04-27 18:29 | 56.89730 | 60.24150 | 6584 ft | 340 kts | 153° |
| 2026-04-27 18:29 | 56.87846 | 60.26752 | 6012 ft | 339 kts | 138° |
| 2026-04-27 18:29 | 56.86179 | 60.29712 | 5451 ft | 336 kts | 136° |
| 2026-04-27 18:29 | 56.84547 | 60.32686 | 4868 ft | 334 kts | 136° |
| 2026-04-27 18:30 | 56.82899 | 60.35671 | 4304 ft | 331 kts | 136° |
| 2026-04-27 18:30 | 56.81246 | 60.38497 | 4026 ft | 318 kts | 139° |
| 2026-04-27 18:30 | 56.79617 | 60.41084 | 3805 ft | 306 kts | 140° |
| 2026-04-27 18:30 | 56.78051 | 60.43541 | 3595 ft | 294 kts | 140° |
| 2026-04-27 18:31 | 56.76522 | 60.45940 | 3394 ft | 283 kts | 140° |
| 2026-04-27 18:31 | 56.75307 | 60.48564 | 3093 ft | 267 kts | 116° |
| 2026-04-27 18:31 | 56.74913 | 60.51704 | 3006 ft | 245 kts | 92° |
| 2026-04-27 18:31 | 56.74955 | 60.54731 | 2993 ft | 230 kts | 89° |
| 2026-04-27 18:32 | 56.74982 | 60.57558 | 2880 ft | 221 kts | 91° |
| 2026-04-27 18:32 | 56.74956 | 60.60346 | 2611 ft | 219 kts | 94° |
| 2026-04-27 18:32 | 56.74857 | 60.63044 | 2322 ft | 209 kts | 96° |
| 2026-04-27 18:32 | 56.74739 | 60.65592 | 2095 ft | 191 kts | 97° |
| 2026-04-27 18:33 | 56.74639 | 60.67871 | 1890 ft | 172 kts | 97° |
| 2026-04-27 18:33 | 56.74556 | 60.69971 | 1619 ft | 158 kts | 96° |
| 2026-04-27 18:33 | 56.74479 | 60.71898 | 1312 ft | 149 kts | 97° |
| 2026-04-27 18:33 | 56.74393 | 60.73679 | 1106 ft | 137 kts | 97° |
| 2026-04-27 18:34 | 56.74327 | 60.75406 | 990 ft | 135 kts | 96° |
| 2026-04-27 18:34 | 56.74262 | 60.77106 | 865 ft | 135 kts | 96° |
| 2026-04-27 18:34 | 56.74195 | 60.78804 | 744 ft | 130 kts | 97° |
| 2026-04-27 18:34 | 56.74129 | 60.80278 | 742 ft | 95 kts | 93° |
| 2026-04-27 18:35 | 56.74088 | 60.81189 | 747 ft | 58 kts | 89° |
| 2026-04-27 18:35 | 56.74075 | 60.81810 | 750 ft | 30 kts | 92° |
| 2026-04-27 18:35 | 56.74066 | 60.82097 | 753 ft | 21 kts | 75° |
| 2026-04-27 18:35 | 56.74197 | 60.82173 | 754 ft | 21 kts | 4° |
| 2026-04-27 18:36 | 56.74257 | 60.82182 | 755 ft | 0 kts | 5° |
| 2026-04-27 18:38 | 56.74271 | 60.82184 | 755 ft | 4 kts | 5° |
| 2026-04-27 18:38 | 56.74326 | 60.82191 | 756 ft | 10 kts | 4° |
| 2026-04-27 18:39 | 56.74419 | 60.82203 | 757 ft | 16 kts | 4° |
| 2026-04-27 18:39 | 56.74549 | 60.82208 | 759 ft | 20 kts | 1° |
| 2026-04-27 18:39 | 56.74650 | 60.82163 | 765 ft | 16 kts | 294° |
| 2026-04-27 18:39 | 56.74656 | 60.81915 | 763 ft | 22 kts | 270° |
| 2026-04-27 18:40 | 56.74656 | 60.81594 | 760 ft | 28 kts | 271° |
| 2026-04-27 18:40 | 56.74656 | 60.81220 | 758 ft | 24 kts | 270° |
| 2026-04-27 18:40 | 56.74657 | 60.80908 | 751 ft | 20 kts | 269° |
| 2026-04-27 18:40 | 56.74657 | 60.80611 | 749 ft | 25 kts | 269° |
| 2026-04-27 18:41 | 56.74658 | 60.80265 | 747 ft | 22 kts | 269° |
| 2026-04-27 18:41 | 56.74752 | 60.80138 | 748 ft | 21 kts | 3° |
| 2026-04-27 18:41 | 56.74882 | 60.80140 | 750 ft | 13 kts | 0° |
| 2026-04-27 18:41 | 56.74933 | 60.80139 | 751 ft | 0 kts | 360° |